Time;durP1;ratioP1;P1;durP2;ratioP2;P2;SDS_P1;SDS_P2;PMS_P1;PMS_P2;Temp;Humidity;BMP_temperature;BMP_pressure;BME280_temperature;BME280_humidity;BME280_pressure;Samples;Min_cycle;Max_cycle;Signal;HPM_P1;HPM_P2
2023/01/31 00:01:38;;;;;;;22.33;3.33;;;3.70;99.90;;;2.01;100.00;101039.69;5001476;28;21815;-72
2023/01/31 00:04:11;;;;;;;19.95;2.72;;;3.70;99.90;;;2.05;100.00;101034.00;4999778;28;20481;-72
2023/01/31 00:06:41;;;;;;;22.08;3.47;;;3.70;99.90;;;2.08;100.00;101050.66;5005648;28;20041;-72
2023/01/31 00:09:10;;;;;;;20.05;3.55;;;3.70;99.90;;;2.16;100.00;101058.00;4994116;28;20043;-72
2023/01/31 00:11:36;;;;;;;23.77;3.00;;;3.80;99.90;;;2.13;100.00;101059.16;5001238;28;20093;-72
2023/01/31 00:14:04;;;;;;;19.67;2.70;;;3.80;99.90;;;2.12;100.00;101057.47;5009186;28;20481;-72
2023/01/31 00:16:29;;;;;;;;;;;3.90;99.90;;;2.13;100.00;101067.22;5003435;28;20133;-72
2023/01/31 00:18:55;;;;;;;19.38;3.28;;;3.80;99.90;;;2.22;100.00;101065.47;5005196;28;20254;-72
2023/01/31 00:21:27;;;;;;;17.90;2.80;;;3.90;99.90;;;2.14;100.00;101065.38;4999873;28;20038;-72
2023/01/31 00:23:55;;;;;;;23.92;3.13;;;3.90;99.90;;;2.07;100.00;101061.59;5005397;28;20042;-72
2023/01/31 00:26:28;;;;;;;26.63;3.42;;;3.80;99.90;;;1.97;100.00;101056.28;4995734;28;20389;-72
2023/01/31 00:28:56;;;;;;;22.75;3.00;;;3.70;99.90;;;1.84;100.00;101052.06;5003999;28;20057;-72
2023/01/31 00:31:25;;;;;;;18.02;2.80;;;3.60;99.90;;;1.78;100.00;101068.81;5000189;28;20043;-72
2023/01/31 00:33:52;;;;;;;16.38;3.17;;;3.50;99.90;;;1.77;100.00;101077.88;4998852;28;20049;-73
2023/01/31 00:36:29;;;;;;;19.83;3.25;;;3.50;99.90;;;1.82;100.00;101070.22;4999243;28;20034;-72
2023/01/31 00:38:57;;;;;;;19.42;3.00;;;3.50;99.90;;;1.95;100.00;101061.78;5001532;28;20525;-71
2023/01/31 00:41:25;;;;;;;26.08;3.05;;;3.60;99.90;;;2.00;100.00;101061.34;5009478;28;20448;-72
2023/01/31 00:43:51;;;;;;;;;;;3.70;99.90;;;2.20;100.00;101070.16;5009697;28;20801;-72
2023/01/31 00:46:19;;;;;;;15.48;2.60;;;3.90;99.90;;;2.23;100.00;101074.41;5000355;28;19957;-72
2023/01/31 00:48:44;;;;;;;13.07;2.35;;;3.90;99.90;;;2.27;100.00;101071.25;4996366;28;20034;-72
2023/01/31 00:51:10;;;;;;;14.75;2.90;;;3.90;99.90;;;2.27;100.00;101075.78;4999636;28;20042;-72
2023/01/31 00:53:37;;;;;;;8.48;2.15;;;4.00;99.90;;;2.32;100.00;101086.94;5000728;28;20126;-72
2023/01/31 00:56:16;;;;;;;18.40;3.00;;;4.00;99.90;;;2.39;100.00;101084.50;4996098;28;20050;-71
2023/01/31 00:58:42;;;;;;;13.88;2.00;;;4.10;99.90;;;2.36;100.00;101082.94;4995657;28;20068;-71
2023/01/31 01:01:14;;;;;;;12.10;1.63;;;4.10;99.90;;;2.41;100.00;101090.56;5001368;28;20033;-72
2023/01/31 01:03:42;;;;;;;13.02;2.28;;;4.10;99.90;;;2.40;100.00;101087.03;5000639;28;20049;-72
2023/01/31 01:06:08;;;;;;;;;;;4.10;99.90;;;2.37;100.00;101090.03;5011211;28;20035;-71
2023/01/31 01:08:38;;;;;;;10.55;1.70;;;4.10;99.90;;;2.30;100.00;101099.72;5002656;28;19959;-71
2023/01/31 01:11:26;;;;;;;12.40;1.58;;;4.00;99.90;;;2.19;100.00;101094.53;4999029;28;20065;-72
2023/01/31 01:13:52;;;;;;;14.50;2.40;;;3.90;99.90;;;2.16;100.00;101095.69;4997679;28;20113;-72
2023/01/31 01:16:24;;;;;;;13.70;2.03;;;3.90;99.90;;;2.23;100.00;101110.22;5009993;28;20092;-72
2023/01/31 01:18:53;;;;;;;15.95;2.00;;;3.90;99.90;;;2.27;100.00;101113.47;5007921;28;20046;-72
2023/01/31 01:21:24;;;;;;;14.82;2.20;;;3.90;99.90;;;2.29;100.00;101112.34;5000472;28;20041;-72
2023/01/31 01:23:50;;;;;;;14.15;2.30;;;4.00;99.90;;;2.23;100.00;101125.56;4995687;28;20066;-72
2023/01/31 01:26:27;;;;;;;10.80;2.08;;;3.90;99.90;;;2.24;100.00;101129.94;4992167;28;20054;-72
2023/01/31 01:28:56;;;;;;;13.77;2.45;;;4.00;99.90;;;2.23;100.00;101129.06;4999325;28;20469;-72
2023/01/31 01:31:28;;;;;;;12.57;2.22;;;3.90;99.90;;;2.25;100.00;101126.25;5002817;28;20110;-71
2023/01/31 01:33:59;;;;;;;20.50;3.65;;;3.90;99.90;;;2.20;100.00;101129.38;5005488;28;20033;-71
2023/01/31 01:36:26;;;;;;;14.90;2.80;;;3.90;99.90;;;2.17;100.00;101121.59;4995711;28;20030;-71
2023/01/31 01:38:53;;;;;;;23.42;2.60;;;3.90;99.90;;;2.05;100.00;101114.75;4999419;28;20405;-72
2023/01/31 01:41:20;;;;;;;17.13;2.72;;;3.80;99.90;;;1.95;100.00;101125.53;5005750;28;20494;-72
2023/01/31 01:43:57;;;;;;;20.17;2.50;;;3.70;99.90;;;1.95;100.00;101129.06;4998650;28;20083;-72
2023/01/31 01:46:30;;;;;;;16.60;2.45;;;3.70;99.90;;;1.86;100.00;101132.66;4995196;28;20030;-72
2023/01/31 01:49:33;;;;;;;11.50;2.40;;;3.60;99.90;;;1.85;100.00;101130.97;4994751;28;20045;-72
2023/01/31 01:52:05;;;;;;;15.00;2.85;;;3.60;99.90;;;1.83;100.00;101136.47;4999597;28;20038;-71
2023/01/31 01:54:47;;;;;;;19.90;2.92;;;3.50;99.90;;;1.72;100.00;101125.91;5003147;28;20076;-72
2023/01/31 01:57:19;;;;;;;20.38;2.60;;;3.40;99.90;;;1.74;100.00;101134.69;5005834;28;20031;-72
2023/01/31 02:00:03;;;;;;;19.02;2.65;;;3.40;99.90;;;1.83;100.00;101149.09;5004188;28;20125;-72
2023/01/31 02:02:43;;;;;;;14.77;2.30;;;3.50;99.90;;;1.82;100.00;101144.72;4994602;28;20042;-72
2023/01/31 02:05:12;;;;;;;18.88;3.35;;;3.50;99.90;;;1.82;100.00;101150.09;5000601;28;20052;-72
2023/01/31 02:07:41;;;;;;;18.20;2.60;;;3.50;99.90;;;1.80;100.00;101154.78;4998669;28;20042;-72
2023/01/31 02:10:40;;;;;;;17.15;2.55;;;3.50;99.90;;;1.85;100.00;101147.94;4999559;28;20094;-71
2023/01/31 02:13:07;;;;;;;19.30;2.72;;;3.50;99.90;;;1.81;100.00;101143.84;5009885;28;20109;-72
2023/01/31 02:15:34;;;;;;;18.33;2.55;;;3.50;99.90;;;1.83;100.00;101144.56;4999670;28;20042;-72
2023/01/31 02:18:00;;;;;;;24.05;3.22;;;3.50;99.90;;;1.81;100.00;101149.22;4999540;28;20386;-72
2023/01/31 02:21:17;;;;;;;15.10;2.90;;;3.50;99.90;;;1.88;100.00;101154.88;5006824;28;20030;-72
2023/01/31 02:24:11;;;;;;;17.92;2.45;;;3.50;99.90;;;1.96;100.00;101162.22;4998525;28;20056;-72
2023/01/31 02:27:09;;;;;;;16.67;2.30;;;3.60;99.90;;;2.06;100.00;101141.50;5017209;28;20046;-72
2023/01/31 02:30:34;;;;;;;20.70;4.05;;;3.70;99.90;;;2.09;100.00;101133.13;4998225;28;20054;-72
2023/01/31 02:33:52;;;;;;;17.73;3.47;;;3.80;99.90;;;2.14;100.00;101138.06;4989871;28;20077;-72
2023/01/31 02:36:45;;;;;;;20.52;2.83;;;3.90;99.90;;;2.17;100.00;101137.75;4996185;28;20497;-72
2023/01/31 02:39:34;;;;;;;14.40;2.00;;;3.90;99.90;;;2.22;100.00;101150.78;4994199;28;20069;-72
2023/01/31 02:42:14;;;;;;;17.75;2.92;;;3.90;99.90;;;2.22;100.00;101159.69;4998471;28;20038;-72
2023/01/31 02:45:03;;;;;;;12.75;2.10;;;3.90;99.90;;;2.23;100.00;101155.16;4997423;28;20085;-72
2023/01/31 02:47:51;;;;;;;14.98;2.20;;;3.90;99.90;;;2.20;100.00;101161.69;5001086;28;20030;-71
2023/01/31 02:50:25;;;;;;;15.15;2.50;;;3.90;99.90;;;2.17;100.00;101163.84;4999176;28;20453;-71
2023/01/31 02:53:10;;;;;;;11.93;2.45;;;3.90;99.90;;;2.20;100.00;101182.41;4999001;28;20063;-71
2023/01/31 02:56:16;;;;;;;12.82;2.42;;;3.90;99.90;;;2.19;100.00;101167.25;5006620;28;20027;-72
2023/01/31 02:59:06;;;;;;;19.20;2.83;;;3.90;99.90;;;2.20;100.00;101172.47;5018508;28;20042;-72
2023/01/31 03:01:45;;;;;;;15.55;2.80;;;3.90;99.90;;;2.23;100.00;101176.72;5005924;28;20530;-72
2023/01/31 03:04:13;;;;;;;23.45;2.63;;;3.90;99.90;;;2.27;100.00;101175.41;5010085;28;20069;-72
2023/01/31 03:06:59;;;;;;;15.43;2.55;;;4.00;99.90;;;2.24;100.00;101178.41;4998498;28;20026;-72
2023/01/31 03:09:57;;;;;;;16.92;2.75;;;3.90;99.90;;;2.26;100.00;101171.03;4992442;28;20041;-72
2023/01/31 03:12:56;;;;;;;17.27;3.22;;;3.90;99.90;;;2.24;100.00;101173.84;4997760;28;20030;-72
2023/01/31 03:19:01;;;;;;;16.83;2.65;;;3.90;99.90;;;2.10;100.00;101155.50;4995340;28;20120;-72
2023/01/31 03:21:42;;;;;;;15.20;3.50;;;3.80;99.90;;;2.10;100.00;101152.81;4996294;28;20129;-72
2023/01/31 03:24:11;;;;;;;18.60;2.72;;;3.80;99.90;;;2.09;100.00;101149.25;5001567;28;20025;-72
2023/01/31 03:26:37;;;;;;;;;;;3.80;99.90;;;2.09;100.00;101151.13;5006308;28;20489;-72
2023/01/31 03:29:07;;;;;;;16.30;2.45;;;3.80;99.90;;;2.15;100.00;101150.53;4996576;28;19949;-72
2023/01/31 03:31:52;;;;;;;22.02;2.97;;;3.80;99.90;;;2.20;100.00;101144.69;4992517;28;20035;-72
2023/01/31 03:34:19;;;;;;;22.88;2.22;;;3.90;99.90;;;2.13;100.00;101142.63;4993397;28;20092;-72
2023/01/31 03:36:53;;;;;;;18.58;2.53;;;3.80;99.90;;;2.18;100.00;101158.31;4999696;28;20401;-72
2023/01/31 03:40:06;;;;;;;20.85;2.65;;;3.90;99.90;;;2.14;100.00;101149.69;4997341;28;20097;-71
2023/01/31 03:42:46;;;;;;;24.77;2.78;;;3.90;99.90;;;2.12;100.00;101146.31;4995528;28;20028;-72
2023/01/31 03:45:41;;;;;;;19.35;2.58;;;3.80;99.90;;;2.02;100.00;101137.41;5011632;28;20073;-72
2023/01/31 03:48:13;;;;;;;28.17;4.68;;;3.70;99.90;;;2.07;100.00;101143.19;5004472;28;20088;-71
2023/01/31 03:50:54;;;;;;;16.70;1.95;;;3.80;99.90;;;2.07;100.00;101143.19;5000420;28;20034;-71
2023/01/31 03:53:33;;;;;;;;;;;3.70;99.90;;;1.98;100.00;101136.84;5009566;28;20061;-72
2023/01/31 03:56:37;;;;;;;17.50;2.60;;;3.70;99.90;;;1.95;100.00;101142.53;5008227;28;19921;-73
2023/01/31 03:59:13;;;;;;;12.70;2.03;;;3.60;99.90;;;1.92;100.00;101133.91;4997975;28;20074;-72
2023/01/31 04:01:49;;;;;;;14.88;2.28;;;3.60;99.90;;;1.78;100.00;101111.88;5001880;28;20030;-72
2023/01/31 04:04:24;;;;;;;22.52;2.95;;;3.60;99.90;;;1.83;100.00;101128.41;4992690;28;20041;-72
2023/01/31 04:06:50;;;;;;;18.15;2.60;;;3.60;99.90;;;1.87;100.00;101131.66;4992562;28;20134;-72
2023/01/31 04:09:16;;;;;;;17.83;2.70;;;3.60;99.90;;;1.85;100.00;101136.34;5013937;28;20123;-72
2023/01/31 04:11:49;;;;;;;13.93;2.10;;;3.50;99.90;;;1.85;100.00;101125.59;4999131;28;20038;-72
2023/01/31 04:14:16;;;;;;;13.05;1.80;;;3.50;99.90;;;1.86;100.00;101128.13;4996655;28;20493;-72
2023/01/31 04:16:42;;;;;;;13.88;2.22;;;3.50;99.90;;;1.83;100.00;101133.78;5005366;28;20049;-72
2023/01/31 04:19:08;;;;;;;14.90;2.25;;;3.50;99.90;;;1.78;100.00;101119.94;4991804;28;20088;-72
2023/01/31 04:21:33;;;;;;;18.27;2.45;;;3.50;99.90;;;1.82;100.00;101128.56;5007689;28;20030;-72
2023/01/31 04:23:59;;;;;;;15.98;2.30;;;3.50;99.90;;;1.85;100.00;101126.41;5001101;28;20564;-72
2023/01/31 04:26:25;;;;;;;19.05;2.40;;;3.60;99.90;;;1.82;100.00;101136.66;4996853;28;20085;-73
2023/01/31 04:28:51;;;;;;;12.43;1.98;;;3.50;99.90;;;1.77;100.00;101138.94;4998878;28;20053;-72
2023/01/31 04:31:17;;;;;;;17.90;2.00;;;3.50;99.90;;;1.71;100.00;101129.59;4986587;28;20034;-73
2023/01/31 04:33:42;;;;;;;18.85;2.25;;;3.40;99.90;;;1.69;100.00;101128.91;4992321;28;20711;-73
2023/01/31 04:36:09;;;;;;;25.60;2.47;;;3.40;99.90;;;1.71;100.00;101134.97;4991842;28;20113;-73
2023/01/31 04:38:35;;;;;;;14.35;1.98;;;3.40;99.90;;;1.72;100.00;101129.47;4998184;28;20042;-72
2023/01/31 04:41:00;;;;;;;14.02;2.35;;;3.40;99.90;;;1.77;100.00;101139.75;4994585;28;20068;-73
2023/01/31 04:43:26;;;;;;;13.80;2.63;;;3.50;99.90;;;1.74;100.00;101140.06;4991618;28;20034;-73
2023/01/31 04:45:52;;;;;;;17.65;2.50;;;3.40;99.90;;;1.74;100.00;101137.38;4996466;28;20054;-72
2023/01/31 04:48:18;;;;;;;14.63;1.77;;;3.50;99.90;;;1.82;100.00;101132.09;4992041;28;20041;-73
2023/01/31 04:50:43;;;;;;;24.02;2.53;;;3.50;99.90;;;1.85;100.00;101134.47;4997457;28;20034;-73
2023/01/31 04:53:09;;;;;;;11.82;2.53;;;3.60;99.90;;;1.99;100.00;101153.84;4992493;28;20046;-72
2023/01/31 04:55:35;;;;;;;18.50;2.65;;;3.70;99.90;;;1.99;100.00;101151.16;5009270;28;20026;-73
2023/01/31 04:58:01;;;;;;;21.95;2.50;;;3.70;99.90;;;2.04;100.00;101150.72;5003082;28;20426;-73
2023/01/31 05:00:27;;;;;;;21.00;2.30;;;3.70;99.90;;;2.01;100.00;101147.34;5008465;28;20109;-73
2023/01/31 05:02:53;;;;;;;16.27;2.45;;;3.70;99.90;;;1.96;100.00;101148.78;4999319;28;20371;-72
2023/01/31 05:05:19;;;;;;;17.50;2.42;;;3.60;99.90;;;1.95;100.00;101165.91;5002257;28;20046;-73
2023/01/31 05:07:45;;;;;;;14.25;2.15;;;3.70;99.90;;;1.95;100.00;101152.47;4995475;28;20042;-72
2023/01/31 05:10:12;;;;;;;11.35;2.10;;;3.60;99.90;;;2.01;100.00;101144.66;5003006;28;20046;-73
2023/01/31 05:12:37;;;;;;;14.13;2.05;;;3.70;99.90;;;2.04;100.00;101148.88;4995357;28;20062;-72
2023/01/31 05:15:06;;;;;;;11.90;2.03;;;3.70;99.90;;;2.04;100.00;101156.13;4995566;28;20054;-73
2023/01/31 05:17:33;;;;;;;16.90;2.00;;;3.70;99.90;;;2.00;100.00;101151.03;5011310;28;20113;-72
2023/01/31 05:19:59;;;;;;;21.63;2.78;;;3.70;99.90;;;1.94;100.00;101143.53;4995280;28;20057;-72
2023/01/31 05:22:25;;;;;;;19.35;2.63;;;3.60;99.90;;;2.01;100.00;101141.97;5003281;28;20442;-72
2023/01/31 05:24:51;;;;;;;15.50;2.40;;;3.70;99.90;;;2.00;100.00;101153.72;5002902;28;20050;-72
2023/01/31 05:27:18;;;;;;;17.88;2.40;;;3.70;99.90;;;2.07;100.00;101158.50;4998391;28;20486;-72
2023/01/31 05:29:45;;;;;;;11.20;2.45;;;3.80;99.90;;;2.07;100.00;101147.75;5007461;28;20030;-72
2023/01/31 05:32:11;;;;;;;18.95;3.13;;;3.80;99.90;;;2.08;100.00;101146.75;5007782;28;20440;-72
2023/01/31 05:34:37;;;;;;;15.18;2.60;;;3.80;99.90;;;2.10;100.00;101134.81;5000830;28;20140;-72
2023/01/31 05:37:03;;;;;;;15.23;2.22;;;3.80;99.90;;;2.07;100.00;101136.97;4999843;28;20042;-73
2023/01/31 05:39:30;;;;;;;14.85;1.92;;;3.80;99.90;;;1.98;100.00;101141.41;5002391;28;20452;-72
2023/01/31 05:41:56;;;;;;;15.82;2.22;;;3.70;99.90;;;2.01;100.00;101141.97;4998793;28;20038;-72
2023/01/31 05:44:22;;;;;;;17.60;2.70;;;3.70;99.90;;;2.00;100.00;101144.78;5002270;28;20066;-72
2023/01/31 05:46:48;;;;;;;15.23;2.20;;;3.70;99.90;;;2.00;100.00;101144.78;4994885;28;20038;-73
2023/01/31 05:49:14;;;;;;;14.82;2.17;;;3.70;99.90;;;2.05;100.00;101142.50;4998666;28;20035;-72
2023/01/31 05:51:40;;;;;;;16.67;2.47;;;3.80;99.90;;;2.06;100.00;101143.34;4994692;28;20078;-72
2023/01/31 05:54:07;;;;;;;13.98;1.88;;;3.80;99.90;;;2.05;100.00;101138.97;5005776;28;20045;-72
2023/01/31 05:56:33;;;;;;;14.07;2.38;;;3.80;99.90;;;2.06;100.00;101146.88;4994672;28;20600;-73
2023/01/31 05:59:01;;;;;;;15.25;3.10;;;3.80;99.90;;;2.04;100.00;101134.56;4997015;28;20046;-73
2023/01/31 06:01:27;;;;;;;;;;;3.80;99.90;;;2.04;100.00;101138.09;5016021;28;20580;-73
2023/01/31 06:03:53;;;;;;;15.25;2.45;;;3.70;99.90;;;2.03;100.00;101139.09;4977314;28;20273;-73
2023/01/31 06:06:20;;;;;;;15.85;2.53;;;3.80;99.90;;;2.09;100.00;101132.28;4999425;28;20054;-73
2023/01/31 06:08:46;;;;;;;12.07;2.70;;;3.80;99.90;;;2.14;100.00;101128.16;5006956;28;20104;-73
2023/01/31 06:11:13;;;;;;;10.18;2.10;;;3.90;99.90;;;2.17;100.00;101129.69;5000583;28;20052;-71
2023/01/31 06:13:44;;;;;;;14.25;2.55;;;3.90;99.90;;;2.27;100.00;101129.63;5000270;28;20038;-73
2023/01/31 06:16:11;;;;;;;17.30;2.92;;;4.00;99.90;;;2.29;100.00;101133.03;4994504;28;20058;-73
2023/01/31 06:18:36;;;;;;;13.45;2.10;;;4.00;99.90;;;2.33;100.00;101123.63;4993894;28;20124;-74
2023/01/31 06:21:03;;;;;;;10.75;2.70;;;4.00;99.90;;;2.32;100.00;101121.13;5000986;28;20401;-73
2023/01/31 06:23:28;;;;;;;13.60;2.50;;;4.00;99.90;;;2.34;100.00;101128.03;4999721;28;20068;-73
2023/01/31 06:25:55;;;;;;;14.07;2.30;;;4.10;99.90;;;2.37;100.00;101125.03;4996275;28;20034;-73
2023/01/31 06:28:22;;;;;;;12.57;2.28;;;4.10;99.90;;;2.37;100.00;101116.94;4997773;28;20041;-73
2023/01/31 06:30:48;;;;;;;13.82;2.90;;;4.10;99.90;;;2.42;100.00;101117.38;4998727;28;20033;-74
2023/01/31 06:33:14;;;;;;;15.32;2.90;;;4.10;99.90;;;2.43;100.00;101113.66;5000361;28;20105;-73
2023/01/31 06:35:40;;;;;;;12.85;2.80;;;4.20;99.90;;;2.46;100.00;101117.06;4998134;28;20034;-72
2023/01/31 06:38:07;;;;;;;17.42;2.40;;;4.20;99.90;;;2.49;100.00;101128.34;4993944;28;20081;-74
2023/01/31 06:40:35;;;;;;;11.18;2.15;;;4.20;99.90;;;2.52;100.00;101113.75;4996175;28;20117;-74
2023/01/31 06:43:01;;;;;;;15.07;2.65;;;4.20;99.90;;;2.50;100.00;101116.59;4993966;28;20049;-72
2023/01/31 06:45:27;;;;;;;9.82;2.05;;;4.20;99.90;;;2.54;100.00;101112.59;4999425;28;20124;-75
2023/01/31 06:47:53;;;;;;;12.98;2.65;;;4.20;99.90;;;2.56;100.00;101112.44;5000104;28;20069;-72
2023/01/31 06:50:18;;;;;;;14.00;2.28;;;4.20;99.90;;;2.61;100.00;101096.66;4997716;28;20038;-72
2023/01/31 06:52:44;;;;;;;12.48;2.45;;;4.30;99.90;;;2.53;100.00;101088.50;4998685;28;20504;-72
2023/01/31 06:55:10;;;;;;;12.52;2.67;;;4.30;99.90;;;2.55;100.00;101100.84;4993714;28;20042;-72
2023/01/31 06:57:36;;;;;;;13.60;2.20;;;4.30;99.90;;;2.52;100.00;101094.91;4993644;28;20085;-72
2023/01/31 07:00:03;;;;;;;19.23;2.60;;;4.30;99.90;;;2.48;100.00;101093.50;4993549;28;20042;-72
2023/01/31 07:02:29;;;;;;;10.97;2.37;;;4.20;99.90;;;2.40;100.00;101099.66;4993612;28;20042;-73
2023/01/31 07:04:54;;;;;;;13.48;2.17;;;4.10;99.90;;;2.38;100.00;101080.09;4993579;28;20030;-72
2023/01/31 07:07:20;;;;;;;10.90;2.63;;;4.10;99.90;;;2.36;100.00;101091.03;4996795;28;20058;-72
2023/01/31 07:09:46;;;;;;;23.60;2.85;;;4.10;99.90;;;2.32;100.00;101078.84;5000258;28;20035;-72
2023/01/31 07:12:12;;;;;;;11.55;2.40;;;4.00;99.90;;;2.29;100.00;101074.66;4999578;28;20490;-72
2023/01/31 07:14:37;;;;;;;17.10;3.30;;;4.00;99.90;;;2.30;100.00;101076.34;4999638;28;20038;-73
2023/01/31 07:17:03;;;;;;;16.85;3.10;;;4.00;99.90;;;2.36;100.00;101074.84;4999049;28;20046;-73
2023/01/31 07:19:29;;;;;;;19.98;3.10;;;4.10;99.90;;;2.40;100.00;101059.25;5000338;28;20030;-73
2023/01/31 07:21:54;;;;;;;13.00;3.25;;;4.10;99.90;;;2.48;100.00;101050.41;5002679;28;20068;-74
2023/01/31 07:24:20;;;;;;;20.02;3.47;;;4.10;99.90;;;2.54;100.00;101033.63;5005753;28;20030;-73
2023/01/31 07:26:46;;;;;;;15.90;3.47;;;4.20;99.90;;;2.48;100.00;101029.69;4996706;28;20045;-72
2023/01/31 07:29:12;;;;;;;13.05;3.20;;;4.20;99.90;;;2.53;100.00;101024.72;4998749;28;20038;-72
2023/01/31 07:31:38;;;;;;;16.65;4.05;;;4.20;99.90;;;2.55;100.00;101009.25;4991460;28;20026;-73
2023/01/31 07:34:04;;;;;;;14.13;3.40;;;4.20;99.90;;;2.55;100.00;101011.06;4996655;28;20492;-73
2023/01/31 07:36:30;;;;;;;22.25;3.95;;;4.30;99.90;;;2.55;100.00;101014.63;4992559;28;20122;-72
2023/01/31 07:38:57;;;;;;;16.67;3.33;;;4.30;99.90;;;2.56;100.00;101010.06;4998136;28;20437;-72
2023/01/31 07:41:24;;;;;;;21.50;4.90;;;4.30;99.90;;;2.64;100.00;101012.00;4996762;28;20062;-72
2023/01/31 07:43:51;;;;;;;18.83;4.10;;;4.30;99.90;;;2.73;100.00;100995.75;4995418;28;20049;-71
2023/01/31 07:46:17;;;;;;;22.65;5.30;;;4.40;99.90;;;2.83;100.00;100987.56;4992836;28;20030;-71
2023/01/31 07:48:43;;;;;;;19.30;5.07;;;4.50;99.90;;;2.94;100.00;100975.69;4995598;28;20026;-71
2023/01/31 07:51:10;;;;;;;10.65;4.53;;;4.60;99.90;;;3.09;100.00;100988.56;4994012;28;20482;-70
2023/01/31 07:53:41;;;;;;;17.95;4.85;;;4.70;99.90;;;3.18;100.00;100993.00;4997584;28;20061;-71
2023/01/31 07:56:13;;;;;;;21.92;5.30;;;4.80;99.90;;;3.26;100.00;100979.56;4997287;28;20065;-71
2023/01/31 07:58:42;;;;;;;15.48;4.50;;;4.90;99.90;;;3.34;100.00;100991.41;4992254;28;20038;-71
2023/01/31 08:04:11;;;;;;;20.98;5.25;;;5.10;99.90;;;3.43;100.00;100977.78;4996024;28;20388;-71
2023/01/31 08:06:40;;;;;;;16.58;4.63;;;5.10;99.90;;;3.47;100.00;100983.72;4999006;28;20108;-72
2023/01/31 08:09:05;;;;;;;18.33;4.80;;;5.10;99.90;;;3.49;100.00;100976.31;5008382;28;20124;-71
2023/01/31 08:11:32;;;;;;;18.25;4.82;;;5.20;99.90;;;3.53;100.00;100987.59;4998156;28;20045;-71
2023/01/31 08:13:57;;;;;;;17.13;4.55;;;5.20;99.90;;;3.60;100.00;100973.31;4998038;28;20042;-71
2023/01/31 08:16:23;;;;;;;14.63;4.53;;;5.30;99.90;;;3.72;100.00;100978.44;4998436;28;20128;-72
2023/01/31 08:18:51;;;;;;;20.85;4.57;;;5.40;99.90;;;3.82;100.00;100960.22;4999602;28;20038;-71
2023/01/31 08:21:17;;;;;;;23.42;5.30;;;5.50;99.90;;;3.83;100.00;100959.22;4996466;28;20070;-71
2023/01/31 08:23:44;;;;;;;16.98;4.80;;;5.50;99.90;;;3.89;100.00;100946.94;4996794;28;20490;-71
2023/01/31 08:26:18;;;;;;;18.65;5.18;;;5.50;99.90;;;3.97;100.00;100955.03;4995885;28;20034;-71
2023/01/31 08:28:46;;;;;;;19.77;4.43;;;5.60;99.90;;;4.11;100.00;100944.56;4997343;28;20362;-71
2023/01/31 08:31:17;;;;;;;20.15;5.30;;;5.70;99.90;;;4.21;100.00;100939.00;5000542;28;20037;-71
2023/01/31 08:33:42;;;;;;;18.70;4.47;;;5.80;99.90;;;4.18;100.00;100937.50;4997585;28;20088;-71
2023/01/31 08:36:22;;;;;;;21.15;4.80;;;5.90;99.90;;;4.12;100.00;100935.50;4996178;28;20034;-71
2023/01/31 08:38:48;;;;;;;21.73;4.53;;;5.80;99.90;;;4.06;100.00;100939.69;4995967;28;20038;-71
2023/01/31 08:41:16;;;;;;;19.52;4.38;;;5.80;99.90;;;4.06;100.00;100937.00;4996258;28;20034;-71
2023/01/31 08:43:43;;;;;;;21.20;4.75;;;5.70;99.90;;;4.09;100.00;100942.06;4996035;28;20148;-72
2023/01/31 08:46:09;;;;;;;16.80;4.10;;;5.70;99.90;;;4.13;100.00;100927.19;4996331;28;20034;-71
2023/01/31 08:48:37;;;;;;;20.63;5.20;;;5.80;99.90;;;4.17;100.00;100933.13;4999212;28;20509;-71
2023/01/31 08:51:06;;;;;;;14.00;5.00;;;5.80;99.90;;;4.21;100.00;100917.41;4996739;28;20041;-71
2023/01/31 08:53:33;;;;;;;16.27;5.28;;;5.80;99.90;;;4.24;100.00;100922.47;4997642;28;20034;-71
2023/01/31 08:56:00;;;;;;;21.10;5.95;;;5.90;99.90;;;4.37;100.00;100913.88;5006390;28;20037;-72
2023/01/31 08:58:27;;;;;;;21.95;5.50;;;6.00;99.90;;;4.41;100.00;100912.53;5003309;28;20038;-73
2023/01/31 09:00:53;;;;;;;19.98;5.60;;;6.10;99.90;;;4.47;100.00;100918.09;4995273;28;20043;-71
2023/01/31 09:03:18;;;;;;;21.90;5.90;;;6.10;99.90;;;4.42;100.00;100898.84;5006923;28;20045;-72
2023/01/31 09:05:44;;;;;;;22.58;5.35;;;6.10;99.90;;;4.37;100.00;100889.56;4998887;28;20096;-71
2023/01/31 09:08:11;;;;;;;19.25;5.53;;;6.00;99.90;;;4.43;100.00;100887.03;4998844;28;20393;-73
2023/01/31 09:10:37;;;;;;;22.05;5.63;;;6.10;99.90;;;4.43;100.00;100880.78;5001200;28;20038;-72
2023/01/31 09:13:03;;;;;;;21.60;5.60;;;6.10;99.90;;;4.41;100.00;100882.81;5003758;28;20038;-72
2023/01/31 09:15:28;;;;;;;22.42;6.07;;;6.10;99.90;;;4.45;100.00;100886.88;5002579;28;20092;-72
2023/01/31 09:17:54;;;;;;;22.52;5.70;;;6.10;99.90;;;4.43;100.00;100876.22;4999606;28;20038;-72
2023/01/31 09:20:20;;;;;;;19.38;5.65;;;6.10;99.90;;;4.41;100.00;100891.75;4996050;28;20108;-72
2023/01/31 09:22:46;;;;;;;21.42;6.00;;;6.10;99.90;;;4.39;100.00;100888.38;5010204;28;20152;-73
2023/01/31 09:25:12;;;;;;;20.55;5.75;;;6.10;99.90;;;4.40;100.00;100878.44;5000932;28;20427;-72
2023/01/31 09:27:38;;;;;;;21.05;5.82;;;6.10;99.90;;;4.35;100.00;100878.94;4998185;28;20046;-73
2023/01/31 09:30:09;;;;;;;15.90;5.47;;;6.00;99.90;;;4.27;100.00;100895.97;4999547;28;20038;-72
2023/01/31 09:32:35;;;;;;;16.45;5.13;;;6.00;99.90;;;4.23;100.00;100889.22;4995625;28;20034;-73
2023/01/31 09:35:02;;;;;;;15.93;5.47;;;5.90;99.90;;;4.18;100.00;100880.81;5007134;28;20049;-72
2023/01/31 09:37:29;;;;;;;22.30;5.65;;;5.80;99.90;;;4.11;100.00;100890.56;4995430;28;20061;-72
2023/01/31 09:39:56;;;;;;;22.63;6.72;;;5.80;99.90;;;3.98;100.00;100889.22;4995158;28;20486;-72
2023/01/31 09:42:40;;;;;;;21.67;6.28;;;5.70;99.90;;;3.83;100.00;100899.84;5000191;28;20109;-72
2023/01/31 09:45:25;;;;;;;19.58;6.35;;;5.50;99.90;;;3.58;100.00;100891.69;5010136;28;20048;-73
2023/01/31 09:47:57;;;;;;;24.50;7.40;;;5.30;99.90;;;3.37;100.00;100888.59;4995071;28;20129;-73
2023/01/31 09:50:35;;;;;;;20.80;7.57;;;5.10;99.90;;;3.18;100.00;100887.81;4995906;28;20034;-73
2023/01/31 09:53:02;;;;;;;27.83;8.93;;;4.90;99.90;;;3.07;100.00;100871.97;4998781;28;20038;-73
2023/01/31 09:55:47;;;;;;;23.20;8.40;;;4.80;99.90;;;2.96;100.00;100887.41;4996973;28;20424;-73
2023/01/31 09:58:53;;;;;;;23.13;9.38;;;4.70;99.90;;;2.89;100.00;100848.63;4990976;28;20146;-74
2023/01/31 10:01:29;;;;;;;30.58;11.00;;;4.60;99.90;;;2.84;100.00;100841.03;4996180;28;20163;-73
2023/01/31 10:04:36;;;;;;;24.45;10.43;;;4.60;99.90;;;2.81;100.00;100840.50;4998865;28;20189;-77
2023/01/31 10:07:17;;;;;;;23.73;10.48;;;4.50;99.90;;;2.80;100.00;100830.72;4991248;28;20065;-74
2023/01/31 10:10:32;;;;;;;23.15;9.18;;;4.50;99.90;;;2.83;100.00;100822.31;5000874;28;20034;-73
2023/01/31 10:13:28;;;;;;;19.17;9.13;;;4.50;99.90;;;2.80;100.00;100803.78;4996646;28;20041;-73
2023/01/31 10:16:27;;;;;;;23.42;8.75;;;4.50;99.90;;;2.86;100.00;100809.38;4992627;28;20092;-73
2023/01/31 10:19:03;;;;;;;23.83;8.68;;;4.50;99.90;;;2.85;100.00;100806.84;4993322;28;20030;-73
2023/01/31 10:21:41;;;;;;;23.25;8.82;;;4.50;99.90;;;2.83;100.00;100814.25;4990707;28;20065;-73
2023/01/31 10:24:27;;;;;;;19.48;9.00;;;4.50;99.90;;;2.83;100.00;100822.31;4989870;28;20038;-73
2023/01/31 10:27:06;;;;;;;19.10;8.68;;;4.50;99.90;;;2.87;100.00;100818.28;4991918;28;20396;-73
2023/01/31 10:29:42;;;;;;;20.92;7.72;;;4.50;99.90;;;2.84;100.00;100803.31;4998965;28;20521;-72
2023/01/31 10:32:33;;;;;;;19.70;10.68;;;4.50;99.90;;;2.86;100.00;100784.25;4991931;28;20034;-72
2023/01/31 10:35:29;;;;;;;16.88;7.35;;;4.60;99.90;;;2.88;100.00;100812.75;4993727;28;20031;-74
2023/01/31 10:38:22;;;;;;;13.10;6.93;;;4.50;99.90;;;2.92;100.00;100801.66;4998188;28;20061;-74
2023/01/31 10:40:58;;;;;;;15.68;6.63;;;4.60;99.90;;;2.94;100.00;100792.41;4999515;28;20394;-73